CFG5VL EDDF-GCTS
Flight info
| Callsign | CFG5VL |
|---|---|
| Flight time | N/A |
| Altitude | 31000 |
| Route | SOBRA2L/18 SOBRA Y180 DIK UN857 TOLVU DCT RAPOR DCT ESTOC DCT PON DCT DITAL DCT GODIX DCT DIDAK DCT KURIS DCT TERPO/N0457F330 DCT ERIGA DCT FUJTI DCT ATLEN DCT ABUPI DCT ULVAX DCT NATID DCT CASLU DCT BEXAL UN866 KONBA |
| Aircraft | A321/M-SDE3FGHIRWY/LB1 |
Departure
| Time | 2026-05-04 09:30 |
|---|---|
| Airport | Frankfurt Main Airport (EDDF) |
Arrival
| Time | N/A |
|---|---|
| Airport | Tenerife Sur Airport (GCTS) |
| Time | Latitude | Longitude | Altitude | Speed | Heading |
|---|---|---|---|---|---|
| 2026-05-04 08:27 | 50.05003 | 8.57423 | 356 ft | 0 kts | 74° |
| 2026-05-04 09:25 | 50.04999 | 8.57431 | 359 ft | 1 kts | 131° |
| 2026-05-04 09:25 | 50.04971 | 8.57447 | 358 ft | 6 kts | 160° |
| 2026-05-04 09:26 | 50.04947 | 8.57487 | 362 ft | 7 kts | 116° |
| 2026-05-04 09:26 | 50.04917 | 8.57589 | 358 ft | 11 kts | 116° |
| 2026-05-04 09:26 | 50.04890 | 8.57683 | 359 ft | 8 kts | 112° |
| 2026-05-04 09:26 | 50.04870 | 8.57756 | 363 ft | 9 kts | 112° |
| 2026-05-04 09:27 | 50.04832 | 8.57872 | 362 ft | 13 kts | 131° |
| 2026-05-04 09:27 | 50.04756 | 8.57934 | 357 ft | 12 kts | 159° |
| 2026-05-04 09:27 | 50.04685 | 8.57975 | 364 ft | 10 kts | 160° |
| 2026-05-04 09:27 | 50.04629 | 8.58006 | 365 ft | 7 kts | 160° |
| 2026-05-04 09:28 | 50.04580 | 8.58034 | 363 ft | 11 kts | 160° |
| 2026-05-04 09:28 | 50.04507 | 8.58078 | 367 ft | 10 kts | 159° |
| 2026-05-04 09:28 | 50.04449 | 8.58112 | 370 ft | 9 kts | 160° |
| 2026-05-04 09:28 | 50.04371 | 8.58092 | 372 ft | 14 kts | 233° |
| 2026-05-04 09:29 | 50.04352 | 8.58028 | 365 ft | 0 kts | 249° |
| 2026-05-04 09:29 | 50.04352 | 8.58026 | 365 ft | 2 kts | 249° |
| 2026-05-04 09:29 | 50.04262 | 8.57648 | 366 ft | 73 kts | 250° |
| 2026-05-04 09:29 | 50.03904 | 8.56154 | 355 ft | 146 kts | 250° |
| 2026-05-04 09:30 | 50.03497 | 8.54471 | 411 ft | 180 kts | 249° |
| 2026-05-04 09:30 | 50.03073 | 8.52714 | 1166 ft | 171 kts | 249° |
| 2026-05-04 09:30 | 50.02582 | 8.51030 | 1751 ft | 174 kts | 234° |
| 2026-05-04 09:30 | 50.01630 | 8.49841 | 1757 ft | 195 kts | 201° |
| 2026-05-04 09:31 | 50.00756 | 8.49436 | 1909 ft | 201 kts | 193° |
| 2026-05-04 09:31 | 49.99362 | 8.48837 | 2033 ft | 216 kts | 198° |
| 2026-05-04 09:31 | 49.97906 | 8.48081 | 2384 ft | 223 kts | 200° |
| 2026-05-04 09:31 | 49.96432 | 8.47278 | 2916 ft | 226 kts | 200° |
| 2026-05-04 09:32 | 49.94953 | 8.46462 | 3513 ft | 225 kts | 200° |
| 2026-05-04 09:32 | 49.93060 | 8.45144 | 4250 ft | 226 kts | 216° |
| 2026-05-04 09:34 | 49.84429 | 8.32381 | 7691 ft | 270 kts | 224° |
| 2026-05-04 09:34 | 49.83074 | 8.30359 | 8315 ft | 272 kts | 224° |
| 2026-05-04 09:34 | 49.81707 | 8.28328 | 8916 ft | 273 kts | 224° |
| 2026-05-04 09:34 | 49.80413 | 8.26162 | 9531 ft | 276 kts | 236° |
| 2026-05-04 09:35 | 49.79594 | 8.23463 | 10101 ft | 280 kts | 254° |
| 2026-05-04 09:35 | 49.79380 | 8.20400 | 10323 ft | 299 kts | 273° |
| 2026-05-04 09:35 | 49.79814 | 8.17152 | 10463 ft | 318 kts | 282° |
| 2026-05-04 09:35 | 49.80370 | 8.13781 | 10585 ft | 336 kts | 282° |
| 2026-05-04 09:37 | 49.84700 | 7.86400 | 13052 ft | 391 kts | 281° |
| 2026-05-04 09:37 | 49.85341 | 7.82301 | 13550 ft | 393 kts | 281° |
| 2026-05-04 09:38 | 49.85985 | 7.78173 | 14008 ft | 396 kts | 281° |
| 2026-05-04 09:38 | 49.86627 | 7.74070 | 14436 ft | 398 kts | 281° |
| 2026-05-04 09:38 | 49.87287 | 7.69890 | 14850 ft | 400 kts | 281° |
| 2026-05-04 09:38 | 49.87948 | 7.65686 | 15267 ft | 402 kts | 281° |
| 2026-05-04 09:39 | 49.88605 | 7.61461 | 15700 ft | 404 kts | 281° |
| 2026-05-04 09:39 | 49.89262 | 7.57210 | 16107 ft | 406 kts | 281° |
| 2026-05-04 09:39 | 49.89921 | 7.52939 | 16509 ft | 409 kts | 281° |
| 2026-05-04 09:39 | 49.90580 | 7.48637 | 16911 ft | 411 kts | 281° |
| 2026-05-04 09:40 | 49.91239 | 7.44316 | 17311 ft | 413 kts | 280° |
| 2026-05-04 09:40 | 49.91893 | 7.40026 | 17698 ft | 415 kts | 281° |
| 2026-05-04 09:40 | 49.92568 | 7.35592 | 18088 ft | 417 kts | 280° |
| 2026-05-04 09:40 | 49.93225 | 7.31264 | 18460 ft | 419 kts | 280° |
| 2026-05-04 09:41 | 49.93895 | 7.26848 | 18808 ft | 421 kts | 280° |
| 2026-05-04 09:42 | 49.98583 | 6.95467 | 21165 ft | 433 kts | 279° |
| 2026-05-04 09:43 | 49.99122 | 6.90876 | 21495 ft | 431 kts | 272° |
| 2026-05-04 09:43 | 49.99208 | 6.86229 | 21815 ft | 429 kts | 264° |
| 2026-05-04 09:43 | 49.99063 | 6.81593 | 22142 ft | 431 kts | 264° |
| 2026-05-04 09:43 | 49.98919 | 6.76933 | 22463 ft | 433 kts | 264° |
| 2026-05-04 09:44 | 49.98779 | 6.72255 | 22790 ft | 434 kts | 264° |
| 2026-05-04 09:44 | 49.98640 | 6.67549 | 23099 ft | 436 kts | 264° |
| 2026-05-04 09:44 | 49.98498 | 6.62846 | 23420 ft | 437 kts | 264° |
| 2026-05-04 09:46 | 49.91538 | 6.32057 | 25365 ft | 435 kts | 244° |
| 2026-05-04 09:46 | 49.90332 | 6.27763 | 25755 ft | 433 kts | 244° |
| 2026-05-04 09:46 | 49.89121 | 6.23566 | 26144 ft | 431 kts | 243° |
| 2026-05-04 09:47 | 49.87898 | 6.19338 | 26519 ft | 429 kts | 243° |
| 2026-05-04 09:47 | 49.86693 | 6.15120 | 26892 ft | 427 kts | 242° |
| 2026-05-04 09:49 | 49.75196 | 5.89155 | 29360 ft | 414 kts | 234° |
| 2026-05-04 09:49 | 49.73810 | 5.85245 | 29676 ft | 416 kts | 243° |
| 2026-05-04 09:49 | 49.72791 | 5.81045 | 29984 ft | 417 kts | 247° |
| 2026-05-04 09:51 | 49.66952 | 5.55937 | 31028 ft | 415 kts | 246° |
| 2026-05-04 09:51 | 49.64987 | 5.47554 | 31027 ft | 416 kts | 246° |
| 2026-05-04 09:52 | 49.63007 | 5.39177 | 31027 ft | 416 kts | 246° |
| 2026-05-04 09:52 | 49.61082 | 5.30751 | 31027 ft | 417 kts | 248° |
| 2026-05-04 09:53 | 49.59308 | 5.22288 | 31023 ft | 418 kts | 249° |
| 2026-05-04 09:53 | 49.57983 | 5.13527 | 31019 ft | 420 kts | 253° |
| 2026-05-04 09:54 | 49.56666 | 5.04755 | 31015 ft | 420 kts | 252° |
| 2026-05-04 09:54 | 49.55322 | 4.96003 | 31014 ft | 420 kts | 252° |
| 2026-05-04 09:55 | 49.53975 | 4.87292 | 31016 ft | 421 kts | 252° |
| 2026-05-04 09:55 | 49.52624 | 4.78534 | 31014 ft | 421 kts | 252° |
| 2026-05-04 09:56 | 49.51271 | 4.69758 | 31017 ft | 421 kts | 252° |
| 2026-05-04 09:56 | 49.49906 | 4.60991 | 31013 ft | 422 kts | 252° |
| 2026-05-04 09:57 | 49.48537 | 4.52210 | 31012 ft | 422 kts | 252° |
| 2026-05-04 09:57 | 49.47166 | 4.43504 | 31015 ft | 422 kts | 252° |
| 2026-05-04 09:58 | 49.45775 | 4.34749 | 31006 ft | 422 kts | 252° |
| 2026-05-04 09:58 | 49.44386 | 4.25976 | 30995 ft | 423 kts | 252° |
| 2026-05-04 10:00 | 49.38743 | 3.90902 | 30986 ft | 425 kts | 251° |
| 2026-05-04 10:04 | 49.28521 | 3.29221 | 30985 ft | 429 kts | 250° |
| 2026-05-04 10:04 | 49.27019 | 3.20367 | 30988 ft | 430 kts | 250° |
| 2026-05-04 10:05 | 49.25511 | 3.11513 | 30980 ft | 430 kts | 250° |
| 2026-05-04 10:05 | 49.23993 | 3.02651 | 30988 ft | 431 kts | 250° |
| 2026-05-04 10:06 | 49.22467 | 2.93773 | 30988 ft | 431 kts | 250° |
| 2026-05-04 10:06 | 49.21714 | 2.89396 | 30992 ft | 431 kts | 250° |
| 2026-05-04 10:08 | 49.17378 | 2.64469 | 31004 ft | 432 kts | 250° |
| 2026-05-04 10:08 | 49.15839 | 2.55604 | 31010 ft | 431 kts | 249° |
| 2026-05-04 10:09 | 49.14263 | 2.46759 | 31013 ft | 431 kts | 249° |
| 2026-05-04 10:09 | 49.12810 | 2.37875 | 31010 ft | 435 kts | 256° |
| 2026-05-04 10:10 | 49.11983 | 2.28776 | 31012 ft | 436 kts | 256° |
| 2026-05-04 10:10 | 49.11123 | 2.19619 | 31012 ft | 436 kts | 256° |
| 2026-05-04 10:11 | 49.10251 | 2.10462 | 31008 ft | 436 kts | 256° |
| 2026-05-04 10:11 | 49.08941 | 2.01525 | 31010 ft | 428 kts | 244° |
| 2026-05-04 10:12 | 49.06533 | 1.93341 | 31008 ft | 425 kts | 241° |
| 2026-05-04 10:12 | 49.04074 | 1.85160 | 30999 ft | 425 kts | 241° |
| 2026-05-04 10:13 | 49.01600 | 1.76976 | 30995 ft | 425 kts | 241° |
| 2026-05-04 10:13 | 48.99118 | 1.68797 | 30995 ft | 425 kts | 241° |
| 2026-05-04 10:14 | 48.96633 | 1.60622 | 30999 ft | 426 kts | 241° |
| 2026-05-04 10:16 | 48.86651 | 1.28047 | 30999 ft | 426 kts | 241° |
| 2026-05-04 10:16 | 48.84138 | 1.19915 | 30999 ft | 425 kts | 241° |
| 2026-05-04 10:17 | 48.81628 | 1.11854 | 31004 ft | 425 kts | 241° |
| 2026-05-04 10:19 | 48.70925 | 0.80112 | 30992 ft | 421 kts | 235° |
| 2026-05-04 10:19 | 48.67855 | 0.72560 | 30988 ft | 421 kts | 235° |
| 2026-05-04 10:20 | 48.64792 | 0.65024 | 30988 ft | 421 kts | 235° |
| 2026-05-04 10:20 | 48.61724 | 0.57493 | 30979 ft | 420 kts | 235° |
| 2026-05-04 10:21 | 48.58679 | 0.50026 | 30989 ft | 420 kts | 235° |
| 2026-05-04 10:21 | 48.55615 | 0.42532 | 30976 ft | 419 kts | 235° |
| 2026-05-04 10:22 | 48.50996 | 0.31322 | 30969 ft | 419 kts | 235° |
| 2026-05-04 10:23 | 48.47912 | 0.23853 | 30965 ft | 420 kts | 235° |
| 2026-05-04 10:25 | 48.35509 | -0.05895 | 30962 ft | 420 kts | 233° |
| 2026-05-04 10:25 | 48.32115 | -0.12963 | 30963 ft | 419 kts | 230° |
| 2026-05-04 10:26 | 48.28560 | -0.19901 | 30960 ft | 419 kts | 230° |
| 2026-05-04 10:26 | 48.25023 | -0.26856 | 30965 ft | 419 kts | 230° |
| 2026-05-04 10:27 | 48.21492 | -0.33806 | 30969 ft | 419 kts | 230° |
| 2026-05-04 10:27 | 48.17945 | -0.40740 | 30972 ft | 419 kts | 230° |
| 2026-05-04 10:28 | 48.14425 | -0.47604 | 30973 ft | 418 kts | 230° |
| 2026-05-04 10:28 | 48.10879 | -0.54511 | 30977 ft | 418 kts | 230° |
| 2026-05-04 10:29 | 48.07331 | -0.61402 | 30975 ft | 418 kts | 230° |
| 2026-05-04 10:29 | 48.03777 | -0.68283 | 30976 ft | 418 kts | 230° |
| 2026-05-04 10:30 | 48.00249 | -0.75113 | 30972 ft | 418 kts | 230° |
| 2026-05-04 10:30 | 47.96690 | -0.81976 | 30976 ft | 418 kts | 230° |
| 2026-05-04 10:31 | 47.93124 | -0.88824 | 30974 ft | 418 kts | 230° |
| 2026-05-04 10:32 | 47.80651 | -1.12676 | 30976 ft | 418 kts | 230° |
| 2026-05-04 10:33 | 47.77073 | -1.19487 | 30974 ft | 418 kts | 229° |
| 2026-05-04 10:33 | 47.73490 | -1.26274 | 30975 ft | 418 kts | 229° |
| 2026-05-04 10:34 | 47.69923 | -1.33014 | 30979 ft | 418 kts | 229° |
| 2026-05-04 10:34 | 47.66332 | -1.39788 | 30979 ft | 417 kts | 229° |
| 2026-05-04 10:35 | 47.62741 | -1.46549 | 30982 ft | 417 kts | 229° |
| 2026-05-04 10:35 | 47.59120 | -1.53277 | 30986 ft | 417 kts | 228° |
| 2026-05-04 10:36 | 47.55324 | -1.59683 | 30984 ft | 416 kts | 225° |
| 2026-05-04 10:36 | 47.51398 | -1.65971 | 30984 ft | 416 kts | 225° |
| 2026-05-04 10:37 | 47.47485 | -1.72271 | 30990 ft | 416 kts | 225° |
| 2026-05-04 10:37 | 47.43600 | -1.78619 | 30992 ft | 416 kts | 226° |
| 2026-05-04 10:39 | 47.31179 | -1.96208 | 31426 ft | 415 kts | 211° |
| 2026-05-04 10:39 | 47.28706 | -1.98414 | 31659 ft | 415 kts | 211° |
| 2026-05-04 10:39 | 47.26240 | -2.00619 | 31898 ft | 415 kts | 211° |
| 2026-05-04 10:40 | 47.23772 | -2.02827 | 32134 ft | 415 kts | 211° |
| 2026-05-04 10:40 | 47.21306 | -2.05035 | 32370 ft | 415 kts | 211° |
| 2026-05-04 10:40 | 47.18875 | -2.07212 | 32615 ft | 414 kts | 211° |
| 2026-05-04 10:40 | 47.16416 | -2.09408 | 32834 ft | 414 kts | 211° |
| 2026-05-04 10:41 | 47.13949 | -2.11601 | 32973 ft | 415 kts | 211° |
| 2026-05-04 10:41 | 47.09016 | -2.15975 | 32996 ft | 414 kts | 211° |
| 2026-05-04 10:42 | 47.04088 | -2.20340 | 32995 ft | 413 kts | 211° |
| 2026-05-04 10:42 | 46.99197 | -2.24665 | 32999 ft | 413 kts | 211° |
| 2026-05-04 10:43 | 46.94283 | -2.29005 | 33000 ft | 413 kts | 211° |
| 2026-05-04 10:45 | 46.74634 | -2.46279 | 33002 ft | 412 kts | 211° |
| 2026-05-04 10:45 | 46.69715 | -2.50582 | 32998 ft | 412 kts | 211° |
| 2026-05-04 10:46 | 46.64804 | -2.54873 | 33001 ft | 412 kts | 211° |
| 2026-05-04 10:46 | 46.59915 | -2.59131 | 33002 ft | 412 kts | 211° |
| 2026-05-04 10:47 | 46.55005 | -2.63394 | 32997 ft | 411 kts | 211° |
| 2026-05-04 10:47 | 46.50093 | -2.67646 | 33005 ft | 411 kts | 211° |
| 2026-05-04 10:49 | 46.30491 | -2.84555 | 33002 ft | 410 kts | 211° |
| 2026-05-04 10:50 | 46.25697 | -2.89013 | 33003 ft | 410 kts | 219° |
| 2026-05-04 10:52 | 46.08318 | -3.10197 | 33008 ft | 409 kts | 219° |
| 2026-05-04 10:52 | 46.03966 | -3.15472 | 33009 ft | 409 kts | 219° |
| 2026-05-04 10:54 | 45.86597 | -3.36435 | 33016 ft | 408 kts | 219° |
| 2026-05-04 10:56 | 45.69228 | -3.57214 | 33016 ft | 407 kts | 219° |
| 2026-05-04 10:57 | 45.64904 | -3.62351 | 33016 ft | 407 kts | 219° |
| 2026-05-04 10:57 | 45.60553 | -3.67514 | 33014 ft | 406 kts | 219° |
| 2026-05-04 10:58 | 45.56214 | -3.72672 | 33013 ft | 406 kts | 219° |
| 2026-05-04 10:58 | 45.51867 | -3.77811 | 33019 ft | 406 kts | 219° |
| 2026-05-04 10:59 | 45.47544 | -3.82902 | 33019 ft | 406 kts | 219° |
| 2026-05-04 10:59 | 45.43199 | -3.88025 | 33021 ft | 405 kts | 219° |
| 2026-05-04 11:00 | 45.38855 | -3.93141 | 33020 ft | 405 kts | 219° |
| 2026-05-04 11:02 | 45.21500 | -4.13432 | 33035 ft | 404 kts | 219° |
| 2026-05-04 11:05 | 44.88847 | -4.51177 | 33020 ft | 406 kts | 219° |
| 2026-05-04 11:06 | 44.84468 | -4.56189 | 33018 ft | 406 kts | 219° |
| 2026-05-04 11:06 | 44.80084 | -4.61207 | 33022 ft | 406 kts | 219° |
| 2026-05-04 11:10 | 44.49249 | -4.95886 | 33028 ft | 407 kts | 213° |
| 2026-05-04 11:12 | 44.30024 | -5.12657 | 33033 ft | 408 kts | 213° |
| 2026-05-04 11:12 | 44.25196 | -5.16845 | 33030 ft | 409 kts | 213° |
| 2026-05-04 11:13 | 44.20370 | -5.21039 | 33035 ft | 409 kts | 213° |
| 2026-05-04 11:13 | 44.15573 | -5.25194 | 33037 ft | 409 kts | 213° |
| 2026-05-04 11:14 | 44.10732 | -5.29373 | 33028 ft | 409 kts | 213° |
| 2026-05-04 11:16 | 43.91377 | -5.46013 | 33038 ft | 410 kts | 213° |
| 2026-05-04 11:16 | 43.86523 | -5.50170 | 33043 ft | 410 kts | 213° |
| 2026-05-04 11:17 | 43.81664 | -5.54307 | 33039 ft | 410 kts | 213° |
| 2026-05-04 11:19 | 43.62256 | -5.70786 | 33046 ft | 410 kts | 213° |
| 2026-05-04 11:19 | 43.57431 | -5.74875 | 33043 ft | 410 kts | 213° |
| 2026-05-04 11:20 | 43.52562 | -5.78985 | 33040 ft | 410 kts | 213° |
| 2026-05-04 11:20 | 43.47688 | -5.83089 | 33033 ft | 411 kts | 213° |
| 2026-05-04 11:22 | 43.28179 | -5.99445 | 33026 ft | 412 kts | 213° |
| 2026-05-04 11:23 | 43.23280 | -6.03531 | 33027 ft | 412 kts | 213° |
| 2026-05-04 11:25 | 43.06124 | -6.17784 | 33011 ft | 413 kts | 213° |
| 2026-05-04 11:25 | 43.01209 | -6.21849 | 33004 ft | 413 kts | 213° |
| 2026-05-04 11:27 | 42.78960 | -6.40158 | 33017 ft | 428 kts | 213° |
| 2026-05-04 11:28 | 42.73878 | -6.44328 | 33013 ft | 431 kts | 213° |
| 2026-05-04 11:28 | 42.68740 | -6.48527 | 33013 ft | 431 kts | 213° |
| 2026-05-04 11:29 | 42.63598 | -6.52711 | 33012 ft | 431 kts | 213° |
| 2026-05-04 11:29 | 42.58453 | -6.56891 | 33014 ft | 431 kts | 213° |
| 2026-05-04 11:33 | 42.22528 | -6.85914 | 33004 ft | 430 kts | 214° |
| 2026-05-04 11:33 | 42.17377 | -6.90042 | 33011 ft | 430 kts | 214° |
| 2026-05-04 11:34 | 42.12225 | -6.94154 | 33013 ft | 430 kts | 214° |
| 2026-05-04 11:34 | 42.07077 | -6.98264 | 33013 ft | 430 kts | 214° |
| 2026-05-04 11:35 | 42.01960 | -7.02350 | 33012 ft | 430 kts | 214° |
| 2026-05-04 11:35 | 41.96808 | -7.06454 | 33011 ft | 430 kts | 214° |
| 2026-05-04 11:36 | 41.91650 | -7.10543 | 33011 ft | 430 kts | 214° |
| 2026-05-04 11:36 | 41.86526 | -7.14597 | 33008 ft | 430 kts | 214° |
| 2026-05-04 11:37 | 41.81378 | -7.18672 | 33010 ft | 430 kts | 214° |
| 2026-05-04 11:37 | 41.76218 | -7.22742 | 33010 ft | 430 kts | 214° |
| 2026-05-04 11:38 | 41.71073 | -7.26836 | 33008 ft | 430 kts | 215° |
| 2026-05-04 11:38 | 41.65974 | -7.30988 | 33011 ft | 430 kts | 216° |
| 2026-05-04 11:39 | 41.60906 | -7.35124 | 33014 ft | 430 kts | 216° |
| 2026-05-04 11:41 | 41.43030 | -7.49515 | 33017 ft | 429 kts | 216° |
| 2026-05-04 11:41 | 41.37924 | -7.53620 | 33022 ft | 429 kts | 216° |
| 2026-05-04 11:42 | 41.32803 | -7.57713 | 33021 ft | 429 kts | 216° |
| 2026-05-04 11:42 | 41.27685 | -7.61795 | 33024 ft | 429 kts | 216° |
| 2026-05-04 11:43 | 41.22575 | -7.65868 | 33031 ft | 428 kts | 216° |
| 2026-05-04 11:43 | 41.17497 | -7.69923 | 33036 ft | 428 kts | 216° |
| 2026-05-04 11:44 | 41.12388 | -7.73982 | 33035 ft | 428 kts | 216° |
| 2026-05-04 11:44 | 41.07270 | -7.78035 | 33038 ft | 428 kts | 216° |
| 2026-05-04 11:45 | 41.02155 | -7.82085 | 33038 ft | 428 kts | 216° |
| 2026-05-04 11:45 | 40.97096 | -7.86139 | 33041 ft | 427 kts | 217° |
| 2026-05-04 11:46 | 40.92088 | -7.90360 | 33042 ft | 426 kts | 218° |
| 2026-05-04 11:46 | 40.87093 | -7.94598 | 33044 ft | 427 kts | 218° |
| 2026-05-04 11:47 | 40.82077 | -7.98802 | 33050 ft | 427 kts | 218° |
| 2026-05-04 11:47 | 40.77081 | -8.02936 | 33052 ft | 427 kts | 218° |
| 2026-05-04 11:48 | 40.72049 | -8.07094 | 33057 ft | 427 kts | 218° |
| 2026-05-04 11:48 | 40.67027 | -8.11259 | 33059 ft | 426 kts | 218° |
| 2026-05-04 11:49 | 40.62005 | -8.15417 | 33064 ft | 426 kts | 218° |
| 2026-05-04 11:49 | 40.57008 | -8.19532 | 33064 ft | 426 kts | 218° |
| 2026-05-04 11:50 | 40.51986 | -8.23667 | 33066 ft | 426 kts | 218° |
| 2026-05-04 11:50 | 40.46962 | -8.27804 | 33071 ft | 426 kts | 218° |
| 2026-05-04 11:51 | 40.41940 | -8.31937 | 33070 ft | 426 kts | 218° |
| 2026-05-04 11:51 | 40.36951 | -8.36040 | 33073 ft | 426 kts | 218° |
| 2026-05-04 11:52 | 40.31920 | -8.40150 | 33085 ft | 427 kts | 217° |
| 2026-05-04 11:52 | 40.26883 | -8.44262 | 33086 ft | 426 kts | 217° |
| 2026-05-04 11:53 | 40.21844 | -8.48367 | 33086 ft | 427 kts | 217° |
| 2026-05-04 11:53 | 40.16803 | -8.52470 | 33089 ft | 427 kts | 217° |
| 2026-05-04 11:55 | 39.96649 | -8.68806 | 33084 ft | 427 kts | 217° |
| 2026-05-04 11:56 | 39.91623 | -8.72860 | 33083 ft | 428 kts | 217° |
| 2026-05-04 11:56 | 39.86559 | -8.76938 | 33093 ft | 428 kts | 217° |
| 2026-05-04 11:57 | 39.81490 | -8.81013 | 33092 ft | 428 kts | 217° |
| 2026-05-04 11:57 | 39.76414 | -8.85080 | 33086 ft | 428 kts | 217° |
| 2026-05-04 11:58 | 39.71376 | -8.89117 | 33081 ft | 429 kts | 217° |
| 2026-05-04 11:58 | 39.66297 | -8.93182 | 33087 ft | 429 kts | 217° |
| 2026-05-04 11:59 | 39.61212 | -8.97235 | 33088 ft | 429 kts | 217° |
| 2026-05-04 11:59 | 39.56124 | -9.01288 | 33090 ft | 429 kts | 217° |
| 2026-05-04 12:00 | 39.51067 | -9.05304 | 33093 ft | 429 kts | 217° |
| 2026-05-04 12:00 | 39.45977 | -9.09354 | 33110 ft | 430 kts | 218° |
| 2026-05-04 12:01 | 39.40883 | -9.13398 | 33087 ft | 430 kts | 218° |
| 2026-05-04 12:02 | 39.23033 | -9.27490 | 33098 ft | 431 kts | 218° |
| 2026-05-04 12:03 | 39.17915 | -9.31516 | 33100 ft | 431 kts | 218° |
| 2026-05-04 12:03 | 39.12794 | -9.35535 | 33107 ft | 431 kts | 218° |
| 2026-05-04 12:04 | 39.07709 | -9.39523 | 33101 ft | 431 kts | 218° |
| 2026-05-04 12:04 | 39.02579 | -9.43542 | 33107 ft | 431 kts | 218° |
| 2026-05-04 12:05 | 38.97454 | -9.47541 | 33110 ft | 431 kts | 217° |
| 2026-05-04 12:05 | 38.93185 | -9.50864 | 33112 ft | 431 kts | 217° |
| 2026-05-04 12:06 | 38.87219 | -9.55502 | 33112 ft | 431 kts | 217° |
| 2026-05-04 12:06 | 38.82078 | -9.59482 | 33110 ft | 432 kts | 217° |
| 2026-05-04 12:07 | 38.76928 | -9.63439 | 33110 ft | 432 kts | 217° |
| 2026-05-04 12:07 | 38.71773 | -9.67391 | 33116 ft | 432 kts | 217° |
| 2026-05-04 12:08 | 38.66653 | -9.71316 | 33113 ft | 432 kts | 217° |
| 2026-05-04 12:08 | 38.62333 | -9.74625 | 33118 ft | 432 kts | 217° |
| 2026-05-04 12:09 | 38.57214 | -9.78533 | 33120 ft | 432 kts | 217° |
| 2026-05-04 12:09 | 38.52031 | -9.82425 | 33121 ft | 433 kts | 215° |
| 2026-05-04 12:10 | 38.46679 | -9.86007 | 33121 ft | 435 kts | 213° |
| 2026-05-04 12:10 | 38.41260 | -9.89460 | 33120 ft | 435 kts | 213° |
| 2026-05-04 12:11 | 38.35895 | -9.92921 | 33121 ft | 435 kts | 213° |
| 2026-05-04 12:11 | 38.30528 | -9.96458 | 33127 ft | 435 kts | 213° |
| 2026-05-04 12:12 | 38.25160 | -10.00012 | 33124 ft | 435 kts | 213° |
| 2026-05-04 12:12 | 38.19788 | -10.03542 | 33124 ft | 435 kts | 213° |
| 2026-05-04 12:14 | 37.98277 | -10.17560 | 33132 ft | 435 kts | 213° |
| 2026-05-04 12:15 | 37.92891 | -10.21071 | 33130 ft | 435 kts | 213° |
| 2026-05-04 12:15 | 37.87533 | -10.24552 | 33129 ft | 436 kts | 213° |
| 2026-05-04 12:16 | 37.82139 | -10.28049 | 33130 ft | 436 kts | 213° |
| 2026-05-04 12:16 | 37.76742 | -10.31539 | 33128 ft | 436 kts | 213° |
| 2026-05-04 12:17 | 37.71341 | -10.35022 | 33133 ft | 436 kts | 213° |
| 2026-05-04 12:17 | 37.65978 | -10.38473 | 33124 ft | 436 kts | 213° |
| 2026-05-04 12:18 | 37.60578 | -10.41952 | 33135 ft | 436 kts | 213° |
| 2026-05-04 12:18 | 37.55176 | -10.45430 | 33141 ft | 436 kts | 213° |
| 2026-05-04 12:19 | 37.49770 | -10.48900 | 33141 ft | 436 kts | 213° |
| 2026-05-04 12:19 | 37.44360 | -10.52359 | 33139 ft | 436 kts | 213° |
| 2026-05-04 12:20 | 37.38984 | -10.55791 | 33140 ft | 436 kts | 213° |
| 2026-05-04 12:20 | 37.33575 | -10.59244 | 33139 ft | 436 kts | 213° |
| 2026-05-04 12:21 | 37.28160 | -10.62682 | 33142 ft | 436 kts | 213° |
| 2026-05-04 12:21 | 37.22752 | -10.66115 | 33139 ft | 436 kts | 213° |
| 2026-05-04 12:22 | 37.17383 | -10.69535 | 33144 ft | 436 kts | 213° |
| 2026-05-04 12:22 | 37.11974 | -10.72964 | 33151 ft | 436 kts | 213° |
| 2026-05-04 12:23 | 37.06567 | -10.76389 | 33140 ft | 435 kts | 213° |
| 2026-05-04 12:23 | 37.01159 | -10.79808 | 33143 ft | 435 kts | 213° |
| 2026-05-04 12:24 | 36.95790 | -10.83196 | 33145 ft | 435 kts | 213° |
| 2026-05-04 12:24 | 36.90392 | -10.86596 | 33145 ft | 435 kts | 213° |
| 2026-05-04 12:25 | 36.84992 | -10.89997 | 33145 ft | 434 kts | 213° |
| 2026-05-04 12:25 | 36.79590 | -10.93385 | 33152 ft | 434 kts | 213° |
| 2026-05-04 12:26 | 36.74229 | -10.96751 | 33153 ft | 434 kts | 213° |
| 2026-05-04 12:26 | 36.68837 | -11.00137 | 33152 ft | 434 kts | 213° |
| 2026-05-04 12:27 | 36.63443 | -11.03511 | 33154 ft | 434 kts | 213° |
| 2026-05-04 12:27 | 36.58049 | -11.06875 | 33148 ft | 433 kts | 213° |
| 2026-05-04 12:28 | 36.52690 | -11.10204 | 33154 ft | 433 kts | 213° |
| 2026-05-04 12:28 | 36.47309 | -11.13555 | 33152 ft | 433 kts | 213° |
| 2026-05-04 12:29 | 36.41925 | -11.16902 | 33152 ft | 432 kts | 213° |
| 2026-05-04 12:29 | 36.36546 | -11.20240 | 33153 ft | 432 kts | 213° |
| 2026-05-04 12:30 | 36.31206 | -11.23547 | 33166 ft | 432 kts | 213° |
| 2026-05-04 12:30 | 36.25831 | -11.26864 | 33158 ft | 431 kts | 213° |
| 2026-05-04 12:31 | 36.20464 | -11.30181 | 33163 ft | 431 kts | 213° |
| 2026-05-04 12:31 | 36.15110 | -11.33484 | 33159 ft | 430 kts | 213° |
| 2026-05-04 12:32 | 36.07124 | -11.38395 | 33170 ft | 428 kts | 213° |
| 2026-05-04 12:33 | 36.01795 | -11.41669 | 33171 ft | 427 kts | 213° |
| 2026-05-04 12:33 | 35.96526 | -11.45008 | 33172 ft | 421 kts | 219° |
| 2026-05-04 12:34 | 35.91777 | -11.49130 | 33171 ft | 417 kts | 222° |
| 2026-05-04 12:34 | 35.87059 | -11.53274 | 33176 ft | 416 kts | 222° |
| 2026-05-04 12:35 | 35.82384 | -11.57380 | 33168 ft | 415 kts | 222° |
| 2026-05-04 12:35 | 35.77678 | -11.61502 | 33167 ft | 415 kts | 222° |
| 2026-05-04 12:36 | 35.72976 | -11.65613 | 33158 ft | 414 kts | 222° |
| 2026-05-04 12:36 | 35.68310 | -11.69687 | 33160 ft | 414 kts | 223° |
| 2026-05-04 12:37 | 35.63620 | -11.73781 | 33168 ft | 413 kts | 223° |
| 2026-05-04 12:37 | 35.58929 | -11.77863 | 33165 ft | 413 kts | 223° |
| 2026-05-04 12:38 | 35.54243 | -11.81934 | 33157 ft | 413 kts | 223° |
| 2026-05-04 12:38 | 35.49559 | -11.86011 | 33156 ft | 413 kts | 223° |
| 2026-05-04 12:39 | 35.44898 | -11.90055 | 33153 ft | 413 kts | 222° |
| 2026-05-04 12:39 | 35.40200 | -11.94117 | 33151 ft | 413 kts | 222° |
| 2026-05-04 12:40 | 35.35504 | -11.98183 | 33149 ft | 413 kts | 222° |
| 2026-05-04 12:40 | 35.30803 | -12.02244 | 33145 ft | 414 kts | 222° |
| 2026-05-04 12:41 | 35.26123 | -12.06271 | 33142 ft | 414 kts | 222° |
| 2026-05-04 12:41 | 35.21411 | -12.10320 | 33148 ft | 414 kts | 222° |
| 2026-05-04 12:42 | 35.16694 | -12.14378 | 33149 ft | 415 kts | 222° |
| 2026-05-04 12:42 | 35.11973 | -12.18438 | 33148 ft | 415 kts | 222° |
| 2026-05-04 12:43 | 35.07282 | -12.22462 | 33148 ft | 415 kts | 222° |
| 2026-05-04 12:43 | 35.02551 | -12.26512 | 33145 ft | 415 kts | 221° |
| 2026-05-04 12:44 | 34.97812 | -12.30554 | 33151 ft | 416 kts | 221° |
| 2026-05-04 12:44 | 34.93072 | -12.34599 | 33151 ft | 416 kts | 221° |
| 2026-05-04 12:45 | 34.88370 | -12.38615 | 33150 ft | 416 kts | 221° |
| 2026-05-04 12:45 | 34.83622 | -12.42658 | 33150 ft | 416 kts | 221° |
| 2026-05-04 12:46 | 34.78874 | -12.46698 | 33149 ft | 417 kts | 221° |
| 2026-05-04 12:46 | 34.74118 | -12.50735 | 33146 ft | 417 kts | 221° |
| 2026-05-04 12:47 | 34.69363 | -12.54761 | 33149 ft | 417 kts | 221° |
| 2026-05-04 12:47 | 34.64631 | -12.58762 | 33151 ft | 417 kts | 221° |
| 2026-05-04 12:48 | 34.59872 | -12.62795 | 33153 ft | 417 kts | 221° |
| 2026-05-04 12:48 | 34.55109 | -12.66811 | 33150 ft | 417 kts | 221° |
| 2026-05-04 12:49 | 34.50341 | -12.70828 | 33151 ft | 417 kts | 221° |
| 2026-05-04 12:49 | 34.45608 | -12.74822 | 33150 ft | 417 kts | 221° |
| 2026-05-04 12:50 | 34.40831 | -12.78826 | 33151 ft | 418 kts | 221° |
| 2026-05-04 12:50 | 34.36052 | -12.82831 | 33148 ft | 418 kts | 221° |
| 2026-05-04 12:51 | 34.31276 | -12.86838 | 33148 ft | 418 kts | 220° |
| 2026-05-04 12:51 | 34.26492 | -12.90838 | 33163 ft | 418 kts | 220° |
| 2026-05-04 12:52 | 34.21752 | -12.94816 | 33149 ft | 418 kts | 221° |
| 2026-05-04 12:52 | 34.16987 | -12.98847 | 33156 ft | 418 kts | 220° |
| 2026-05-04 12:53 | 34.12228 | -13.02868 | 33151 ft | 418 kts | 220° |
| 2026-05-04 12:53 | 34.07456 | -13.06884 | 33146 ft | 418 kts | 220° |
| 2026-05-04 12:54 | 34.02710 | -13.10866 | 33145 ft | 418 kts | 220° |
| 2026-05-04 12:54 | 33.97928 | -13.14867 | 33140 ft | 418 kts | 220° |
| 2026-05-04 12:55 | 33.93149 | -13.18873 | 33140 ft | 418 kts | 220° |
| 2026-05-04 12:55 | 33.88367 | -13.22872 | 33142 ft | 418 kts | 219° |
| 2026-05-04 12:56 | 33.83614 | -13.26839 | 33146 ft | 418 kts | 219° |
| 2026-05-04 12:56 | 33.78834 | -13.30824 | 33143 ft | 418 kts | 219° |
| 2026-05-04 12:57 | 33.74050 | -13.34813 | 33142 ft | 418 kts | 219° |
| 2026-05-04 12:57 | 33.69267 | -13.38802 | 33143 ft | 419 kts | 219° |
| 2026-05-04 12:58 | 33.64508 | -13.42752 | 33139 ft | 419 kts | 219° |
| 2026-05-04 12:58 | 33.59714 | -13.46722 | 33143 ft | 419 kts | 219° |
| 2026-05-04 12:59 | 33.54923 | -13.50696 | 33140 ft | 419 kts | 218° |
| 2026-05-04 12:59 | 33.50130 | -13.54663 | 33138 ft | 419 kts | 218° |
| 2026-05-04 13:00 | 33.45365 | -13.58596 | 33142 ft | 419 kts | 218° |
| 2026-05-04 13:00 | 33.40575 | -13.62556 | 33137 ft | 419 kts | 218° |
| 2026-05-04 13:01 | 33.35778 | -13.66516 | 33133 ft | 419 kts | 218° |
| 2026-05-04 13:01 | 33.30972 | -13.70460 | 33143 ft | 419 kts | 218° |
| 2026-05-04 13:02 | 33.26196 | -13.74374 | 33144 ft | 419 kts | 218° |
| 2026-05-04 13:02 | 33.21388 | -13.78313 | 33141 ft | 419 kts | 218° |
| 2026-05-04 13:03 | 33.16578 | -13.82249 | 33129 ft | 419 kts | 218° |
| 2026-05-04 13:03 | 33.11763 | -13.86181 | 33129 ft | 419 kts | 218° |
| 2026-05-04 13:04 | 33.06974 | -13.90071 | 33127 ft | 420 kts | 217° |
| 2026-05-04 13:04 | 33.02142 | -13.93989 | 33129 ft | 420 kts | 217° |
| 2026-05-04 13:05 | 32.97304 | -13.97910 | 33124 ft | 420 kts | 217° |
| 2026-05-04 13:05 | 32.92466 | -14.01828 | 33124 ft | 421 kts | 217° |
| 2026-05-04 13:06 | 32.87652 | -14.05700 | 33129 ft | 421 kts | 217° |
| 2026-05-04 13:06 | 32.82801 | -14.09609 | 33125 ft | 421 kts | 217° |
| 2026-05-04 13:07 | 32.77945 | -14.13514 | 33125 ft | 421 kts | 217° |
| 2026-05-04 13:07 | 32.73087 | -14.17419 | 33121 ft | 422 kts | 217° |
| 2026-05-04 13:08 | 32.68267 | -14.21297 | 33124 ft | 422 kts | 217° |
| 2026-05-04 13:08 | 32.63405 | -14.25199 | 33122 ft | 422 kts | 217° |
| 2026-05-04 13:09 | 32.58534 | -14.29097 | 33125 ft | 422 kts | 217° |
| 2026-05-04 13:09 | 32.53663 | -14.32987 | 33125 ft | 422 kts | 217° |
| 2026-05-04 13:10 | 32.48829 | -14.36855 | 33118 ft | 422 kts | 217° |
| 2026-05-04 13:10 | 32.43966 | -14.40740 | 33121 ft | 422 kts | 217° |
| 2026-05-04 13:11 | 32.39091 | -14.44621 | 33121 ft | 422 kts | 217° |
| 2026-05-04 13:11 | 32.34222 | -14.48499 | 33122 ft | 422 kts | 217° |
| 2026-05-04 13:12 | 32.29385 | -14.52349 | 33121 ft | 422 kts | 217° |
| 2026-05-04 13:12 | 32.24508 | -14.56211 | 33120 ft | 422 kts | 217° |
| 2026-05-04 13:13 | 32.19644 | -14.60067 | 33120 ft | 421 kts | 217° |
| 2026-05-04 13:13 | 32.14772 | -14.63918 | 33118 ft | 421 kts | 217° |
| 2026-05-04 13:14 | 32.09898 | -14.67767 | 33115 ft | 421 kts | 217° |
| 2026-05-04 13:14 | 32.05056 | -14.71581 | 33117 ft | 421 kts | 217° |
| 2026-05-04 13:15 | 32.00184 | -14.75421 | 33116 ft | 421 kts | 217° |
| 2026-05-04 13:15 | 31.95317 | -14.79255 | 33114 ft | 421 kts | 217° |
| 2026-05-04 13:16 | 31.90451 | -14.83092 | 33118 ft | 421 kts | 217° |
| 2026-05-04 13:16 | 31.85614 | -14.86890 | 33118 ft | 421 kts | 217° |
| 2026-05-04 13:17 | 31.80748 | -14.90709 | 33118 ft | 420 kts | 217° |
| 2026-05-04 13:17 | 31.75888 | -14.94515 | 33120 ft | 420 kts | 217° |
| 2026-05-04 13:18 | 31.71029 | -14.98315 | 33122 ft | 419 kts | 217° |
| 2026-05-04 13:18 | 31.66173 | -15.02107 | 33124 ft | 419 kts | 217° |
| 2026-05-04 13:19 | 31.61362 | -15.05859 | 33126 ft | 418 kts | 217° |
| 2026-05-04 13:19 | 31.56524 | -15.09633 | 33130 ft | 417 kts | 217° |
| 2026-05-04 13:20 | 31.51687 | -15.13394 | 33128 ft | 416 kts | 217° |
| 2026-05-04 13:20 | 31.46754 | -15.16956 | 33126 ft | 418 kts | 213° |
| 2026-05-04 13:21 | 31.41677 | -15.20179 | 33128 ft | 418 kts | 212° |
| 2026-05-04 13:21 | 31.36542 | -15.23352 | 33128 ft | 417 kts | 212° |
| 2026-05-04 13:22 | 31.31446 | -15.26548 | 33134 ft | 415 kts | 213° |
| 2026-05-04 13:22 | 31.26368 | -15.29758 | 33131 ft | 414 kts | 213° |
| 2026-05-04 13:23 | 31.21302 | -15.32960 | 33132 ft | 413 kts | 213° |
| 2026-05-04 13:23 | 31.16280 | -15.36127 | 33130 ft | 413 kts | 213° |
| 2026-05-04 13:24 | 31.11231 | -15.39301 | 33134 ft | 412 kts | 213° |
| 2026-05-04 13:24 | 31.06192 | -15.42464 | 33125 ft | 411 kts | 213° |
| 2026-05-04 13:25 | 30.98651 | -15.47202 | 33125 ft | 410 kts | 213° |
| 2026-05-04 13:25 | 30.93661 | -15.50323 | 33123 ft | 409 kts | 213° |
| 2026-05-04 13:26 | 30.88653 | -15.53451 | 33120 ft | 409 kts | 213° |
| 2026-05-04 13:26 | 30.83641 | -15.56582 | 33120 ft | 408 kts | 213° |
| 2026-05-04 13:27 | 30.78648 | -15.59702 | 33118 ft | 407 kts | 213° |
| 2026-05-04 13:27 | 30.73691 | -15.62801 | 33119 ft | 407 kts | 213° |
| 2026-05-04 13:28 | 30.68706 | -15.65916 | 33120 ft | 407 kts | 213° |
| 2026-05-04 13:28 | 30.63714 | -15.69007 | 33114 ft | 406 kts | 213° |
| 2026-05-04 13:29 | 30.58730 | -15.72090 | 33108 ft | 406 kts | 213° |
| 2026-05-04 13:29 | 30.53754 | -15.75179 | 33122 ft | 405 kts | 213° |
| 2026-05-04 13:30 | 30.48820 | -15.78247 | 33112 ft | 405 kts | 213° |
| 2026-05-04 13:30 | 30.43855 | -15.81320 | 33120 ft | 404 kts | 213° |
| 2026-05-04 13:31 | 30.38903 | -15.84386 | 33119 ft | 404 kts | 213° |
| 2026-05-04 13:31 | 30.33950 | -15.87448 | 33115 ft | 403 kts | 213° |
| 2026-05-04 13:32 | 30.29035 | -15.90475 | 33111 ft | 403 kts | 213° |
| 2026-05-04 13:32 | 30.24090 | -15.93509 | 33114 ft | 402 kts | 213° |
| 2026-05-04 13:33 | 30.19151 | -15.96541 | 33109 ft | 402 kts | 213° |
| 2026-05-04 13:33 | 30.14225 | -15.99584 | 33106 ft | 401 kts | 213° |
| 2026-05-04 13:34 | 30.09307 | -16.02616 | 33106 ft | 401 kts | 213° |
| 2026-05-04 13:34 | 30.04378 | -16.05635 | 33101 ft | 401 kts | 213° |
| 2026-05-04 13:35 | 29.97023 | -16.10136 | 33101 ft | 400 kts | 213° |
| 2026-05-04 13:36 | 29.92093 | -16.13151 | 32706 ft | 402 kts | 213° |
| 2026-05-04 13:36 | 29.89624 | -16.14661 | 32192 ft | 403 kts | 213° |
| 2026-05-04 13:36 | 29.87138 | -16.16182 | 31692 ft | 406 kts | 213° |
| 2026-05-04 13:36 | 29.84666 | -16.17694 | 31209 ft | 409 kts | 213° |
| 2026-05-04 13:37 | 29.82148 | -16.19237 | 30730 ft | 412 kts | 213° |
| 2026-05-04 13:37 | 29.79611 | -16.20793 | 30253 ft | 415 kts | 213° |
| 2026-05-04 13:37 | 29.77056 | -16.22356 | 29710 ft | 417 kts | 213° |
| 2026-05-04 13:37 | 29.75358 | -16.23393 | 29345 ft | 419 kts | 212° |
| 2026-05-04 13:38 | 29.71896 | -16.25502 | 28620 ft | 422 kts | 212° |
| 2026-05-04 13:38 | 29.69300 | -16.27081 | 28094 ft | 424 kts | 212° |
| 2026-05-04 13:38 | 29.66685 | -16.28670 | 27577 ft | 426 kts | 212° |
| 2026-05-04 13:38 | 29.64052 | -16.30268 | 27068 ft | 428 kts | 212° |
| 2026-05-04 13:39 | 29.61418 | -16.31866 | 26567 ft | 430 kts | 212° |
| 2026-05-04 13:39 | 29.58801 | -16.33453 | 26088 ft | 432 kts | 212° |
| 2026-05-04 13:39 | 29.56137 | -16.35070 | 25595 ft | 434 kts | 212° |
| 2026-05-04 13:39 | 29.53461 | -16.36695 | 25139 ft | 436 kts | 211° |
| 2026-05-04 13:40 | 29.50776 | -16.38327 | 24660 ft | 437 kts | 211° |
| 2026-05-04 13:40 | 29.48092 | -16.39955 | 24281 ft | 435 kts | 211° |
| 2026-05-04 13:40 | 29.45416 | -16.41574 | 23949 ft | 434 kts | 211° |
| 2026-05-04 13:40 | 29.42752 | -16.43181 | 23599 ft | 433 kts | 211° |
| 2026-05-04 13:41 | 29.40091 | -16.44783 | 23196 ft | 431 kts | 211° |
| 2026-05-04 13:41 | 29.37443 | -16.46379 | 22796 ft | 429 kts | 211° |
| 2026-05-04 13:41 | 29.34843 | -16.47946 | 22417 ft | 427 kts | 211° |
| 2026-05-04 13:42 | 29.29616 | -16.51103 | 21638 ft | 422 kts | 211° |
| 2026-05-04 13:42 | 29.27022 | -16.52668 | 21262 ft | 420 kts | 211° |
| 2026-05-04 13:42 | 29.24440 | -16.54227 | 20887 ft | 419 kts | 211° |
| 2026-05-04 13:42 | 29.21868 | -16.55775 | 20520 ft | 417 kts | 211° |
| 2026-05-04 13:43 | 29.19310 | -16.57311 | 20151 ft | 415 kts | 211° |
| 2026-05-04 13:43 | 29.16754 | -16.58844 | 19778 ft | 413 kts | 211° |
| 2026-05-04 13:43 | 29.14220 | -16.60364 | 19434 ft | 411 kts | 211° |
| 2026-05-04 13:43 | 29.11726 | -16.61862 | 19086 ft | 410 kts | 211° |
| 2026-05-04 13:44 | 29.09209 | -16.63374 | 18810 ft | 408 kts | 211° |
| 2026-05-04 13:44 | 29.06700 | -16.64881 | 18585 ft | 407 kts | 211° |
| 2026-05-04 13:44 | 29.04197 | -16.66385 | 18348 ft | 406 kts | 211° |
| 2026-05-04 13:44 | 29.01699 | -16.67882 | 18075 ft | 404 kts | 211° |
| 2026-05-04 13:45 | 28.99212 | -16.69369 | 17829 ft | 403 kts | 211° |
| 2026-05-04 13:45 | 28.96733 | -16.70851 | 17552 ft | 401 kts | 211° |
| 2026-05-04 13:45 | 28.94268 | -16.72326 | 17164 ft | 399 kts | 211° |
| 2026-05-04 13:45 | 28.91850 | -16.73774 | 16789 ft | 397 kts | 211° |
| 2026-05-04 13:46 | 28.89416 | -16.75229 | 16411 ft | 395 kts | 211° |
| 2026-05-04 13:46 | 28.86990 | -16.76677 | 16043 ft | 392 kts | 211° |
| 2026-05-04 13:46 | 28.84576 | -16.78114 | 15674 ft | 390 kts | 211° |
| 2026-05-04 13:46 | 28.82176 | -16.79543 | 15312 ft | 388 kts | 211° |
| 2026-05-04 13:47 | 28.79790 | -16.80965 | 14951 ft | 386 kts | 211° |
| 2026-05-04 13:47 | 28.77416 | -16.82380 | 14593 ft | 384 kts | 211° |
| 2026-05-04 13:47 | 28.75054 | -16.83788 | 14242 ft | 382 kts | 211° |
| 2026-05-04 13:47 | 28.72704 | -16.85186 | 13891 ft | 380 kts | 211° |
| 2026-05-04 13:48 | 28.70366 | -16.86578 | 13500 ft | 378 kts | 211° |
| 2026-05-04 13:48 | 28.68068 | -16.87946 | 13118 ft | 376 kts | 211° |
| 2026-05-04 13:48 | 28.65777 | -16.89309 | 12735 ft | 367 kts | 211° |
| 2026-05-04 13:48 | 28.63547 | -16.90637 | 12353 ft | 358 kts | 211° |
| 2026-05-04 13:49 | 28.61359 | -16.91940 | 11982 ft | 351 kts | 211° |
| 2026-05-04 13:49 | 28.59221 | -16.93211 | 11613 ft | 341 kts | 211° |
| 2026-05-04 13:49 | 28.57150 | -16.94438 | 11248 ft | 330 kts | 210° |
| 2026-05-04 13:49 | 28.55140 | -16.95628 | 10892 ft | 321 kts | 210° |
| 2026-05-04 13:50 | 28.53186 | -16.96785 | 10533 ft | 313 kts | 210° |
| 2026-05-04 13:50 | 28.51306 | -16.97899 | 10188 ft | 305 kts | 210° |
| 2026-05-04 13:50 | 28.49446 | -16.99003 | 9821 ft | 298 kts | 210° |
| 2026-05-04 13:50 | 28.47626 | -17.00083 | 9431 ft | 292 kts | 210° |
| 2026-05-04 13:51 | 28.45842 | -17.01140 | 9055 ft | 286 kts | 210° |
| 2026-05-04 13:51 | 28.44092 | -17.02178 | 8668 ft | 281 kts | 210° |
| 2026-05-04 13:51 | 28.42374 | -17.03196 | 8303 ft | 276 kts | 209° |